createdAt,value
2023-02-06T00:00:49.230Z,26.60
2023-02-06T00:03:38.056Z,25.40
2023-02-06T00:06:09.161Z,24.40
2023-02-06T00:08:38.065Z,25.10
2023-02-06T00:11:08.639Z,24.70
2023-02-06T00:13:38.461Z,27.40
2023-02-06T00:16:17.937Z,27.00
2023-02-06T00:18:47.106Z,25.80
2023-02-06T00:21:19.656Z,26.20
2023-02-06T00:23:49.227Z,23.40
2023-02-06T00:26:19.333Z,26.40
2023-02-06T00:28:48.282Z,24.50
2023-02-06T00:31:17.300Z,24.70
2023-02-06T00:33:46.834Z,24.30
2023-02-06T00:36:15.556Z,25.30
2023-02-06T00:38:44.229Z,23.70
2023-02-06T00:41:12.932Z,25.70
2023-02-06T00:43:42.835Z,24.50
2023-02-06T00:46:11.826Z,25.20
2023-02-06T00:48:41.671Z,25.50
2023-02-06T00:51:10.361Z,26.40
2023-02-06T00:53:39.471Z,22.40
2023-02-06T00:56:09.614Z,23.80
2023-02-06T00:58:39.197Z,24.00
2023-02-06T01:01:08.181Z,24.00
2023-02-06T01:03:37.363Z,24.30
2023-02-06T01:06:06.541Z,24.10
2023-02-06T01:08:35.197Z,24.90
2023-02-06T01:11:10.660Z,24.50
2023-02-06T01:13:39.779Z,21.70
2023-02-06T01:16:13.438Z,23.40
2023-02-06T01:18:44.376Z,22.90
2023-02-06T01:21:16.446Z,23.50
2023-02-06T01:23:46.949Z,22.70
2023-02-06T01:26:19.075Z,24.50
2023-02-06T01:28:50.202Z,23.90
2023-02-06T01:31:21.324Z,24.00
2023-02-06T01:33:51.013Z,22.70
2023-02-06T01:36:20.833Z,24.90
2023-02-06T01:38:49.856Z,24.70
2023-02-06T01:41:21.441Z,23.50
2023-02-06T01:44:10.312Z,23.30
2023-02-06T01:46:40.204Z,23.50
2023-02-06T01:49:13.633Z,25.20
2023-02-06T01:51:42.973Z,24.50
2023-02-06T01:54:14.858Z,24.20
2023-02-06T01:56:47.927Z,23.30
2023-02-06T01:59:17.038Z,23.80
2023-02-06T02:01:50.188Z,23.60
2023-02-06T02:04:24.426Z,22.60
2023-02-06T02:07:06.914Z,21.70
2023-02-06T02:09:37.005Z,22.00
2023-02-06T02:12:06.634Z,21.90
2023-02-06T02:14:41.878Z,23.60
2023-02-06T02:17:27.458Z,22.20
2023-02-06T02:20:34.139Z,21.30
2023-02-06T02:23:16.391Z,19.80
2023-02-06T02:26:28.543Z,20.90
2023-02-06T02:29:26.028Z,21.10
2023-02-06T02:32:20.063Z,21.50
2023-02-06T02:35:12.778Z,21.20
2023-02-06T02:38:03.451Z,18.50
2023-02-06T02:40:45.069Z,21.00
2023-02-06T02:43:25.346Z,21.20
2023-02-06T02:45:59.076Z,19.70
2023-02-06T02:48:33.431Z,20.70
2023-02-06T02:51:05.316Z,20.70
2023-02-06T02:53:34.210Z,22.60
2023-02-06T02:56:08.956Z,20.20
2023-02-06T02:58:38.587Z,21.00
2023-02-06T03:01:11.419Z,20.10
2023-02-06T03:03:44.362Z,19.80
2023-02-06T03:06:31.906Z,20.50
2023-02-06T03:09:08.681Z,20.20
2023-02-06T03:11:43.981Z,21.40
2023-02-06T03:14:21.214Z,20.50
2023-02-06T03:16:55.866Z,20.10
2023-02-06T03:19:30.646Z,20.50
2023-02-06T03:22:02.440Z,19.70
2023-02-06T03:24:34.548Z,19.00
2023-02-06T03:27:07.719Z,19.70
2023-02-06T03:29:49.110Z,19.80
2023-02-06T03:32:23.581Z,21.10
2023-02-06T03:34:58.695Z,18.30
2023-02-06T03:37:29.461Z,21.20
2023-02-06T03:40:00.802Z,24.40
2023-02-06T03:42:33.840Z,24.30
2023-02-06T03:45:07.165Z,24.20
2023-02-06T03:47:37.825Z,23.80
2023-02-06T03:50:09.700Z,22.40
2023-02-06T03:52:43.564Z,22.20
2023-02-06T03:55:17.400Z,22.20
2023-02-06T03:57:51.017Z,23.00
2023-02-06T04:00:23.526Z,25.10
2023-02-06T04:02:53.745Z,25.30
2023-02-06T04:05:23.020Z,24.50
2023-02-06T04:07:53.470Z,24.10
2023-02-06T04:10:22.116Z,25.10
2023-02-06T04:12:50.637Z,27.10
2023-02-06T04:15:19.744Z,26.40
2023-02-06T04:18:00.149Z,26.40
2023-02-06T04:20:31.325Z,26.30
2023-02-06T04:23:02.451Z,27.00
2023-02-06T04:25:32.085Z,26.70
2023-02-06T04:28:01.871Z,25.90
2023-02-06T04:30:32.941Z,26.70
2023-02-06T04:33:02.100Z,29.10
2023-02-06T04:35:33.124Z,28.20
2023-02-06T04:38:01.828Z,27.10
2023-02-06T04:40:33.458Z,24.30
2023-02-06T04:43:02.367Z,25.20
2023-02-06T04:45:32.428Z,25.60
2023-02-06T04:48:01.981Z,24.50
2023-02-06T04:50:33.716Z,25.00
2023-02-06T04:53:02.962Z,25.80
2023-02-06T04:55:31.940Z,25.20
2023-02-06T04:58:00.750Z,22.90
2023-02-06T05:00:32.454Z,23.40
2023-02-06T05:03:01.098Z,23.90
2023-02-06T05:05:31.016Z,22.10
2023-02-06T05:08:00.028Z,24.10
2023-02-06T05:10:29.088Z,21.70
2023-02-06T05:12:57.708Z,21.70
2023-02-06T05:15:27.012Z,21.00
2023-02-06T05:17:55.700Z,21.50
2023-02-06T05:20:24.272Z,21.20
2023-02-06T05:22:53.058Z,21.40
2023-02-06T05:25:22.335Z,22.00
2023-02-06T05:27:51.691Z,21.90
2023-02-06T05:30:21.048Z,20.00
2023-02-06T05:32:51.053Z,16.80
2023-02-06T05:35:19.743Z,16.30
2023-02-06T05:37:48.542Z,18.80
2023-02-06T05:40:17.636Z,19.30
2023-02-06T05:42:46.923Z,23.50
2023-02-06T05:45:15.762Z,22.50
2023-02-06T05:47:47.003Z,21.60
2023-02-06T05:50:15.808Z,20.00
2023-02-06T05:52:44.996Z,20.00
2023-02-06T05:55:16.401Z,18.90
2023-02-06T05:57:46.325Z,20.50
2023-02-06T06:00:16.966Z,20.20
2023-02-06T06:02:46.152Z,20.10
2023-02-06T06:05:14.947Z,18.70
2023-02-06T06:07:43.874Z,19.80
2023-02-06T06:10:13.167Z,18.70
2023-02-06T06:12:41.877Z,17.20
2023-02-06T06:15:12.757Z,20.20
2023-02-06T06:17:41.799Z,20.70
2023-02-06T06:20:13.506Z,19.90
2023-02-06T06:22:42.261Z,21.10
2023-02-06T06:25:11.199Z,20.20
2023-02-06T06:27:39.974Z,19.70
2023-02-06T06:30:12.156Z,20.10
2023-02-06T06:32:41.256Z,18.60
2023-02-06T06:35:10.134Z,19.80
2023-02-06T06:37:38.978Z,19.40
2023-02-06T06:40:09.340Z,20.30
2023-02-06T06:42:38.240Z,30.00
2023-02-06T06:45:11.030Z,20.60
2023-02-06T06:47:39.740Z,21.00
2023-02-06T06:50:09.421Z,19.40
2023-02-06T06:52:38.127Z,18.50
2023-02-06T06:55:10.101Z,16.20
2023-02-06T06:57:39.462Z,11.80
2023-02-06T07:00:13.083Z,14.20
2023-02-06T07:02:42.413Z,13.10
2023-02-06T07:05:12.284Z,9.90
2023-02-06T07:07:40.989Z,9.40
2023-02-06T07:10:11.712Z,13.30
2023-02-06T07:12:40.793Z,12.40
2023-02-06T07:15:10.757Z,18.90
2023-02-06T07:17:39.482Z,15.90
2023-02-06T07:20:10.768Z,17.50
2023-02-06T07:22:39.555Z,18.80
2023-02-06T07:25:08.676Z,19.10
2023-02-06T07:27:37.591Z,14.20
2023-02-06T07:30:08.600Z,17.80
2023-02-06T07:32:37.293Z,15.90
2023-02-06T07:35:07.149Z,14.70
2023-02-06T07:37:35.837Z,11.30
2023-02-06T07:40:06.086Z,11.60
2023-02-06T07:42:34.936Z,9.20
2023-02-06T07:45:11.543Z,15.20
2023-02-06T07:47:40.433Z,10.10
2023-02-06T07:50:10.820Z,10.80
2023-02-06T07:52:39.447Z,12.20
2023-02-06T07:55:09.713Z,13.80
2023-02-06T07:57:38.425Z,18.30
2023-02-06T08:00:09.529Z,18.70
2023-02-06T08:02:41.709Z,20.60
2023-02-06T08:05:10.574Z,16.60
2023-02-06T08:07:39.563Z,19.20
2023-02-06T08:10:10.044Z,11.20
2023-02-06T08:12:38.846Z,11.60
2023-02-06T08:15:10.129Z,11.60
2023-02-06T08:17:42.046Z,13.20
2023-02-06T08:20:12.311Z,13.50
2023-02-06T08:22:41.310Z,16.60
2023-02-06T08:25:10.480Z,16.30
2023-02-06T08:27:39.173Z,11.50
2023-02-06T08:30:10.099Z,15.70
2023-02-06T08:32:38.744Z,15.90
2023-02-06T08:35:08.214Z,17.40
2023-02-06T08:37:37.077Z,12.90
2023-02-06T08:40:08.137Z,11.30
2023-02-06T08:42:36.847Z,16.30
2023-02-06T08:45:07.338Z,12.40
2023-02-06T08:47:36.142Z,9.70
2023-02-06T08:50:05.851Z,17.00
2023-02-06T08:52:34.585Z,20.50
2023-02-06T08:55:03.269Z,19.40
2023-02-06T08:57:35.145Z,20.10
2023-02-06T09:00:05.923Z,16.70
2023-02-06T09:02:35.384Z,18.90
2023-02-06T09:05:05.012Z,14.40
2023-02-06T09:07:35.369Z,19.90
2023-02-06T09:10:04.177Z,19.70
2023-02-06T09:12:34.579Z,24.80
2023-02-06T09:15:03.650Z,25.30
2023-02-06T09:17:34.917Z,14.60
2023-02-06T09:20:04.832Z,22.30
2023-02-06T09:22:35.278Z,24.80
2023-02-06T09:25:03.920Z,23.30
2023-02-06T09:27:33.151Z,23.20
2023-02-06T09:30:02.196Z,24.40
2023-02-06T09:32:31.858Z,29.00
2023-02-06T09:35:03.915Z,27.90
2023-02-06T09:37:35.783Z,27.30
2023-02-06T09:40:05.153Z,26.80
2023-02-06T09:42:37.869Z,25.40
2023-02-06T09:45:12.373Z,23.90
2023-02-06T09:47:47.381Z,23.50
2023-02-06T09:50:25.640Z,23.50
2023-02-06T09:53:06.611Z,28.80
2023-02-06T09:55:40.722Z,25.80
2023-02-06T09:58:22.948Z,28.90
2023-02-06T10:00:59.188Z,25.50
2023-02-06T10:03:51.119Z,28.50
2023-02-06T10:06:23.048Z,32.90
2023-02-06T10:08:59.677Z,35.20
2023-02-06T10:11:41.529Z,27.00
2023-02-06T10:14:18.615Z,25.70
2023-02-06T10:16:51.810Z,25.70
2023-02-06T10:19:25.768Z,26.30
2023-02-06T10:22:00.858Z,22.40
2023-02-06T10:24:38.251Z,22.80
2023-02-06T10:27:13.055Z,21.10
2023-02-06T10:29:45.300Z,22.10
2023-02-06T10:32:37.507Z,22.00
2023-02-06T10:35:26.391Z,23.10
2023-02-06T10:38:22.714Z,23.10
2023-02-06T10:40:56.447Z,27.20
2023-02-06T10:43:39.800Z,26.60
2023-02-06T10:46:28.741Z,26.80
2023-02-06T10:51:34.889Z,17.70
2023-02-06T10:54:06.567Z,15.30
2023-02-06T10:56:40.488Z,20.80
2023-02-06T10:59:21.815Z,22.70
2023-02-06T11:01:56.890Z,19.60
2023-02-06T11:04:33.674Z,22.40
2023-02-06T11:07:08.567Z,22.20
2023-02-06T11:09:40.292Z,22.70
2023-02-06T11:12:24.117Z,19.70
2023-02-06T11:14:57.856Z,18.40
2023-02-06T11:17:28.197Z,20.30
2023-02-06T11:20:04.810Z,19.00
2023-02-06T11:22:44.272Z,19.20
2023-02-06T11:25:25.336Z,21.90
2023-02-06T11:27:55.081Z,18.20
2023-02-06T11:30:32.915Z,18.30
2023-02-06T11:33:06.469Z,22.00
2023-02-06T11:35:47.152Z,16.20
2023-02-06T11:38:18.822Z,21.70
2023-02-06T11:40:56.072Z,24.40
2023-02-06T11:43:26.636Z,20.70
2023-02-06T11:46:15.603Z,18.90
2023-02-06T11:51:14.529Z,25.60
2023-02-06T11:53:57.326Z,28.70
2023-02-06T11:56:26.857Z,32.60
2023-02-06T11:59:13.767Z,30.80
2023-02-06T12:01:46.063Z,29.20
2023-02-06T12:04:24.607Z,35.00
2023-02-06T12:07:02.533Z,25.10
2023-02-06T12:09:32.287Z,30.20
2023-02-06T12:12:05.264Z,20.50
2023-02-06T12:14:40.789Z,23.50
2023-02-06T12:17:24.065Z,26.50
2023-02-06T12:20:01.406Z,34.60
2023-02-06T12:22:35.943Z,37.20
2023-02-06T12:25:06.387Z,38.60
2023-02-06T12:27:39.418Z,38.60
2023-02-06T12:30:42.641Z,36.20
2023-02-06T12:33:15.810Z,34.60
2023-02-06T12:35:49.182Z,36.80
2023-02-06T12:38:32.345Z,32.40
2023-02-06T12:41:17.076Z,38.30
2023-02-06T12:43:52.045Z,38.50
2023-02-06T12:46:22.958Z,26.70
2023-02-06T12:48:57.598Z,34.00
2023-02-06T12:51:30.355Z,28.40
2023-02-06T12:54:05.168Z,37.60
2023-02-06T12:56:40.699Z,28.80
2023-02-06T12:59:34.131Z,27.70
2023-02-06T13:02:16.804Z,30.00
2023-02-06T13:04:47.522Z,33.20
2023-02-06T13:07:20.463Z,34.90
2023-02-06T13:09:52.636Z,35.90
2023-02-06T13:12:24.236Z,27.50
2023-02-06T13:14:56.076Z,39.20
2023-02-06T13:17:27.016Z,39.90
2023-02-06T13:20:07.116Z,44.10
2023-02-06T13:22:44.299Z,44.20
2023-02-06T13:25:52.318Z,47.20
2023-02-06T13:29:09.170Z,46.80
2023-02-06T13:31:38.238Z,41.80
2023-02-06T13:34:13.999Z,37.90
2023-02-06T13:36:52.543Z,38.60
2023-02-06T13:39:34.560Z,45.90
2023-02-06T13:42:35.241Z,44.20
2023-02-06T13:45:06.236Z,42.90
2023-02-06T13:48:00.111Z,42.80
2023-02-06T13:50:52.667Z,38.30
2023-02-06T13:54:02.668Z,35.80
2023-02-06T13:56:52.791Z,38.40
2023-02-06T13:59:27.306Z,41.50
2023-02-06T14:01:56.633Z,38.10
2023-02-06T14:04:30.132Z,42.20
2023-02-06T14:07:17.628Z,46.30
2023-02-06T14:10:01.537Z,43.40
2023-02-06T14:12:43.824Z,42.90
2023-02-06T14:15:25.489Z,41.60
2023-02-06T14:18:20.922Z,40.00
2023-02-06T14:21:03.929Z,43.10
2023-02-06T14:23:53.855Z,57.80
2023-02-06T14:26:36.690Z,68.20
2023-02-06T14:29:17.480Z,47.70
2023-02-06T14:32:13.236Z,43.70
2023-02-06T14:34:57.109Z,42.10
2023-02-06T14:37:46.702Z,39.60
2023-02-06T14:40:20.215Z,40.40
2023-02-06T14:42:51.469Z,42.40
2023-02-06T14:45:38.545Z,40.00
2023-02-06T14:48:21.182Z,42.40
2023-02-06T14:50:54.900Z,41.10
2023-02-06T14:53:29.097Z,44.90
2023-02-06T14:56:08.664Z,46.10
2023-02-06T14:58:37.959Z,42.60
2023-02-06T15:01:20.139Z,43.90
2023-02-06T15:03:52.363Z,43.80
2023-02-06T15:06:37.262Z,43.90
2023-02-06T15:09:07.412Z,58.80
2023-02-06T15:11:36.317Z,43.50
2023-02-06T15:14:19.820Z,42.50
2023-02-06T15:16:49.796Z,39.20
2023-02-06T15:19:20.299Z,37.60
2023-02-06T15:21:50.204Z,37.20
2023-02-06T15:24:45.034Z,42.00
2023-02-06T15:27:23.140Z,40.30
2023-02-06T15:29:53.032Z,38.10
2023-02-06T15:32:27.750Z,40.10
2023-02-06T15:34:56.658Z,41.00
2023-02-06T15:37:30.183Z,41.20
2023-02-06T15:40:07.293Z,43.00
2023-02-06T15:42:37.001Z,45.40
2023-02-06T15:45:15.663Z,44.40
2023-02-06T15:47:45.586Z,42.60
2023-02-06T15:50:19.184Z,41.10
2023-02-06T15:52:48.476Z,36.60
2023-02-06T15:55:26.442Z,37.80
2023-02-06T15:57:57.495Z,36.40
2023-02-06T16:00:29.473Z,37.80
2023-02-06T16:03:05.263Z,35.10
2023-02-06T16:05:40.039Z,34.30
2023-02-06T16:08:18.156Z,34.00
2023-02-06T16:10:51.008Z,33.60
2023-02-06T16:13:24.755Z,34.30
2023-02-06T16:16:07.876Z,31.80
2023-02-06T16:18:38.650Z,32.40
2023-02-06T16:21:26.817Z,29.00
2023-02-06T16:24:06.404Z,29.20
2023-02-06T16:26:44.013Z,35.80
2023-02-06T16:29:22.805Z,39.50
2023-02-06T16:31:59.419Z,40.70
2023-02-06T16:34:38.975Z,40.30
2023-02-06T16:37:13.453Z,38.40
2023-02-06T16:39:44.206Z,38.20
2023-02-06T16:42:16.826Z,38.30
2023-02-06T16:44:49.902Z,32.50
2023-02-06T16:47:20.862Z,34.30
2023-02-06T16:49:50.494Z,33.40
2023-02-06T16:52:23.014Z,30.40
2023-02-06T16:54:53.289Z,29.30
2023-02-06T16:57:29.140Z,30.80
2023-02-06T16:59:59.100Z,28.40
2023-02-06T17:02:29.596Z,28.80
2023-02-06T17:04:59.437Z,21.50
2023-02-06T17:07:34.848Z,19.90
2023-02-06T17:10:07.957Z,21.40
2023-02-06T17:12:37.202Z,23.80
2023-02-06T17:15:07.432Z,21.90
2023-02-06T17:17:36.330Z,23.50
2023-02-06T17:20:20.164Z,18.20
2023-02-06T17:22:50.862Z,26.80
2023-02-06T17:25:20.047Z,29.60
2023-02-06T17:27:48.944Z,31.00
2023-02-06T17:30:20.058Z,29.40
2023-02-06T17:32:49.578Z,29.90
2023-02-06T17:35:18.900Z,28.80
2023-02-06T17:37:53.033Z,29.70
2023-02-06T17:40:24.062Z,28.30
2023-02-06T17:42:54.682Z,27.70
2023-02-06T17:45:23.856Z,28.50
2023-02-06T17:47:53.268Z,27.40
2023-02-06T17:50:24.762Z,27.80
2023-02-06T17:52:55.724Z,24.10
2023-02-06T17:55:26.092Z,26.40
2023-02-06T17:57:55.964Z,22.50
2023-02-06T18:00:26.246Z,27.80
2023-02-06T18:02:56.187Z,26.50
2023-02-06T18:05:25.756Z,21.10
2023-02-06T18:07:54.471Z,29.80
2023-02-06T18:10:25.175Z,30.80
2023-02-06T18:12:53.972Z,34.00
2023-02-06T18:15:22.875Z,35.10
2023-02-06T18:17:54.345Z,34.60
2023-02-06T18:20:23.689Z,37.20
2023-02-06T18:22:52.892Z,37.30
2023-02-06T18:25:23.653Z,39.10
2023-02-06T18:27:52.463Z,40.40
2023-02-06T18:30:21.444Z,36.10
2023-02-06T18:32:50.091Z,38.00
2023-02-06T18:35:19.393Z,40.30
2023-02-06T18:37:49.523Z,38.80
2023-02-06T18:40:20.258Z,37.10
2023-02-06T18:42:53.572Z,37.20
2023-02-06T18:45:24.610Z,37.20
2023-02-06T18:47:53.482Z,37.20
2023-02-06T18:50:23.040Z,36.50
2023-02-06T18:52:51.991Z,37.60
2023-02-06T18:55:21.126Z,39.10
2023-02-06T18:57:52.514Z,29.90
2023-02-06T19:00:26.208Z,27.60
2023-02-06T19:02:58.622Z,39.00
2023-02-06T19:05:30.106Z,40.40
2023-02-06T19:08:03.171Z,45.40
2023-02-06T19:10:32.786Z,41.00
2023-02-06T19:13:01.705Z,41.70
2023-02-06T19:15:37.765Z,42.80
2023-02-06T19:18:10.200Z,41.90
2023-02-06T19:20:41.991Z,39.50
2023-02-06T19:23:10.980Z,37.90
2023-02-06T19:25:42.720Z,41.30
2023-02-06T19:28:18.254Z,35.60
2023-02-06T19:30:48.148Z,33.90
2023-02-06T19:33:17.540Z,37.70
2023-02-06T19:35:46.855Z,39.80
2023-02-06T19:38:15.850Z,40.30
2023-02-06T19:40:46.961Z,40.30
2023-02-06T19:43:17.337Z,41.10
2023-02-06T19:45:46.861Z,39.60
2023-02-06T19:48:16.238Z,42.00
2023-02-06T19:50:45.231Z,48.10
2023-02-06T19:53:16.915Z,50.20
2023-02-06T19:55:48.993Z,49.50
2023-02-06T19:58:17.966Z,48.40
2023-02-06T20:00:49.206Z,46.80
2023-02-06T20:03:18.872Z,48.20
2023-02-06T20:05:48.717Z,47.50
2023-02-06T20:08:18.976Z,45.00
2023-02-06T20:10:47.977Z,46.70
2023-02-06T20:13:17.133Z,44.80
2023-02-06T20:15:46.019Z,47.60
2023-02-06T20:18:15.564Z,48.20
2023-02-06T20:20:46.682Z,47.10
2023-02-06T20:23:16.375Z,46.40
2023-02-06T20:25:45.462Z,50.00
2023-02-06T20:28:14.464Z,48.70
2023-02-06T20:30:43.786Z,47.60
2023-02-06T20:33:13.620Z,48.50
2023-02-06T20:35:45.682Z,45.80
2023-02-06T20:38:15.514Z,50.00
2023-02-06T20:40:51.242Z,49.50
2023-02-06T20:43:20.718Z,50.50
2023-02-06T20:45:49.828Z,53.40
2023-02-06T20:48:19.139Z,56.50
2023-02-06T20:50:48.387Z,49.30
2023-02-06T20:53:17.761Z,52.80
2023-02-06T20:55:47.346Z,51.90
2023-02-06T20:58:16.571Z,51.20
2023-02-06T21:00:45.745Z,54.50
2023-02-06T21:03:14.941Z,52.50
2023-02-06T21:05:54.168Z,51.10
2023-02-06T21:08:23.454Z,50.20
2023-02-06T21:10:53.600Z,54.20
2023-02-06T21:13:22.249Z,54.20
2023-02-06T21:15:53.694Z,55.00
2023-02-06T21:18:23.016Z,48.90
2023-02-06T21:20:52.909Z,51.80
2023-02-06T21:23:22.162Z,48.70
2023-02-06T21:25:56.046Z,51.60
2023-02-06T21:28:24.927Z,49.60
2023-02-06T21:31:00.834Z,49.40
2023-02-06T21:33:29.570Z,46.90
2023-02-06T21:35:58.275Z,48.70
2023-02-06T21:38:28.170Z,50.30
2023-02-06T21:40:58.379Z,49.10
2023-02-06T21:43:27.482Z,48.80
2023-02-06T21:45:57.968Z,47.10
2023-02-06T21:48:27.620Z,48.00
2023-02-06T21:50:56.405Z,42.80
2023-02-06T21:53:25.710Z,44.10
2023-02-06T21:55:54.551Z,45.80
2023-02-06T21:58:23.518Z,43.90
2023-02-06T22:00:52.163Z,45.00
2023-02-06T22:03:22.334Z,42.30
2023-02-06T22:05:51.189Z,42.00
2023-02-06T22:08:20.380Z,50.20
2023-02-06T22:10:50.025Z,51.60
2023-02-06T22:13:18.808Z,50.00
2023-02-06T22:15:50.880Z,48.40
2023-02-06T22:18:20.881Z,51.40
2023-02-06T22:20:52.369Z,44.90
2023-02-06T22:23:21.314Z,44.90
2023-02-06T22:25:54.100Z,46.00
2023-02-06T22:28:23.433Z,41.40
2023-02-06T22:30:52.351Z,42.40
2023-02-06T22:33:21.122Z,40.70
2023-02-06T22:35:52.647Z,39.80
2023-02-06T22:38:21.600Z,40.60
2023-02-06T22:41:00.330Z,38.50
2023-02-06T22:43:32.041Z,39.70
2023-02-06T22:46:01.063Z,40.10
2023-02-06T22:48:32.633Z,40.10
2023-02-06T22:51:06.499Z,39.40
2023-02-06T22:53:37.366Z,38.30
2023-02-06T22:56:27.170Z,40.40
2023-02-06T22:58:58.082Z,39.10
2023-02-06T23:01:34.442Z,37.70
2023-02-06T23:04:06.327Z,37.50
2023-02-06T23:06:36.094Z,37.10
2023-02-06T23:09:07.197Z,37.80
2023-02-06T23:11:36.743Z,33.50
2023-02-06T23:14:06.580Z,35.60
2023-02-06T23:16:35.945Z,32.20
2023-02-06T23:19:07.062Z,33.30
2023-02-06T23:21:38.722Z,30.50
2023-02-06T23:24:09.737Z,30.90
2023-02-06T23:26:40.647Z,32.20
2023-02-06T23:29:16.654Z,30.30
2023-02-06T23:31:47.071Z,29.20
2023-02-06T23:34:17.739Z,24.20
2023-02-06T23:36:47.065Z,28.90
2023-02-06T23:39:16.815Z,28.20
2023-02-06T23:41:45.904Z,31.20
2023-02-06T23:44:14.616Z,27.80
2023-02-06T23:46:43.370Z,29.70
2023-02-06T23:49:12.905Z,30.90
2023-02-06T23:51:41.804Z,18.60
2023-02-06T23:54:10.775Z,23.60
2023-02-06T23:56:39.644Z,27.30
2023-02-06T23:59:08.301Z,26.20
